createdAt,value
2023-02-26T00:01:25.490Z,19.30
2023-02-26T00:03:54.086Z,19.40
2023-02-26T00:06:22.096Z,19.40
2023-02-26T00:08:49.990Z,19.40
2023-02-26T00:11:17.710Z,19.50
2023-02-26T00:13:46.083Z,19.50
2023-02-26T00:16:20.056Z,19.60
2023-02-26T00:18:47.824Z,19.60
2023-02-26T00:21:19.091Z,19.60
2023-02-26T00:23:46.770Z,19.60
2023-02-26T00:26:14.361Z,19.60
2023-02-26T00:28:43.137Z,19.60
2023-02-26T00:31:10.997Z,19.60
2023-02-26T00:33:38.803Z,19.70
2023-02-26T00:36:26.893Z,19.70
2023-02-26T00:39:00.000Z,19.70
2023-02-26T00:41:27.704Z,19.70
2023-02-26T00:43:55.459Z,19.70
2023-02-26T00:46:28.866Z,19.80
2023-02-26T00:48:56.708Z,19.80
2023-02-26T00:51:28.220Z,19.80
2023-02-26T00:54:05.849Z,19.90
2023-02-26T00:56:33.489Z,20.00
2023-02-26T00:59:01.014Z,20.00
2023-02-26T01:01:28.575Z,20.10
2023-02-26T01:03:56.394Z,20.10
2023-02-26T01:06:26.833Z,20.20
2023-02-26T01:08:58.873Z,20.20
2023-02-26T01:11:26.492Z,20.30
2023-02-26T01:13:54.271Z,20.30
2023-02-26T01:16:25.562Z,20.40
2023-02-26T01:19:16.288Z,20.50
2023-02-26T01:21:47.972Z,20.50
2023-02-26T01:24:17.292Z,20.60
2023-02-26T01:26:45.253Z,20.60
2023-02-26T01:29:12.951Z,20.70
2023-02-26T01:31:50.322Z,20.70
2023-02-26T01:34:21.136Z,20.70
2023-02-26T01:37:00.933Z,20.80
2023-02-26T01:39:44.138Z,20.90
2023-02-26T01:42:11.616Z,21.00
2023-02-26T01:44:45.110Z,21.00
2023-02-26T01:47:17.189Z,21.10
2023-02-26T01:49:45.046Z,21.10
2023-02-26T01:52:31.110Z,21.10
2023-02-26T01:54:59.027Z,21.20
2023-02-26T01:57:26.647Z,21.20
2023-02-26T01:59:54.767Z,21.20
2023-02-26T02:02:23.590Z,21.30
2023-02-26T02:04:51.804Z,21.30
2023-02-26T02:07:20.888Z,21.40
2023-02-26T02:09:48.518Z,21.50
2023-02-26T02:12:19.475Z,21.50
2023-02-26T02:14:54.264Z,21.60
2023-02-26T02:17:37.475Z,21.60
2023-02-26T02:20:23.601Z,21.70
2023-02-26T02:23:00.003Z,21.80
2023-02-26T02:25:39.854Z,21.90
2023-02-26T02:28:25.885Z,22.00
2023-02-26T02:31:10.119Z,22.00
2023-02-26T02:33:50.901Z,22.10
2023-02-26T02:36:32.028Z,22.20
2023-02-26T02:39:03.295Z,22.30
2023-02-26T02:41:33.065Z,22.40
2023-02-26T02:44:02.028Z,22.50
2023-02-26T02:46:32.314Z,22.60
2023-02-26T02:49:15.743Z,22.70
2023-02-26T02:51:50.161Z,22.80
2023-02-26T02:54:31.380Z,22.80
2023-02-26T02:57:09.478Z,22.80
2023-02-26T02:59:43.661Z,22.80
2023-02-26T03:02:17.946Z,22.90
2023-02-26T03:04:45.767Z,23.00
2023-02-26T03:07:14.056Z,23.00
2023-02-26T03:09:41.979Z,23.00
2023-02-26T03:12:10.413Z,23.10
2023-02-26T03:14:41.500Z,23.10
2023-02-26T03:17:10.398Z,23.20
2023-02-26T03:19:47.722Z,23.30
2023-02-26T03:22:18.306Z,23.30
2023-02-26T03:24:50.995Z,23.30
2023-02-26T03:27:27.861Z,23.40
2023-02-26T03:29:59.311Z,23.50
2023-02-26T03:32:30.861Z,23.50
2023-02-26T03:35:20.453Z,23.60
2023-02-26T03:37:52.889Z,23.60
2023-02-26T03:40:35.101Z,23.70
2023-02-26T03:43:24.198Z,23.70
2023-02-26T03:45:54.052Z,23.80
2023-02-26T03:48:25.711Z,23.90
2023-02-26T03:50:55.351Z,23.90
2023-02-26T03:53:26.835Z,24.00
2023-02-26T03:56:13.297Z,24.00
2023-02-26T03:58:41.364Z,24.00
2023-02-26T04:01:15.155Z,24.10
2023-02-26T04:04:03.283Z,24.20
2023-02-26T04:06:32.160Z,24.30
2023-02-26T04:09:00.444Z,24.30
2023-02-26T04:11:28.839Z,24.30
2023-02-26T04:13:57.592Z,24.40
2023-02-26T04:16:26.168Z,24.50
2023-02-26T04:18:56.296Z,24.50
2023-02-26T04:21:25.380Z,24.60
2023-02-26T04:23:55.330Z,24.60
2023-02-26T04:26:23.381Z,24.60
2023-02-26T04:28:51.926Z,24.70
2023-02-26T04:31:19.955Z,24.80
2023-02-26T04:33:53.345Z,24.90
2023-02-26T04:36:21.738Z,25.00
2023-02-26T04:38:50.460Z,25.20
2023-02-26T04:41:19.249Z,25.20
2023-02-26T04:43:49.017Z,25.30
2023-02-26T04:46:17.297Z,25.30
2023-02-26T04:48:45.535Z,25.30
2023-02-26T04:51:13.663Z,25.40
2023-02-26T04:53:42.262Z,25.40
2023-02-26T04:56:10.030Z,25.40
2023-02-26T04:58:43.112Z,25.50
2023-02-26T05:01:13.080Z,25.50
2023-02-26T05:03:40.971Z,25.50
2023-02-26T05:06:13.246Z,25.60
2023-02-26T05:08:43.889Z,25.60
2023-02-26T05:11:12.275Z,25.60
2023-02-26T05:13:41.733Z,25.60
2023-02-26T05:16:09.637Z,25.60
2023-02-26T05:18:40.434Z,25.60
2023-02-26T05:21:08.116Z,25.60
2023-02-26T05:23:35.723Z,25.60
2023-02-26T05:26:03.801Z,25.70
2023-02-26T05:28:33.979Z,25.80
2023-02-26T05:31:05.414Z,25.80
2023-02-26T05:33:34.324Z,25.80
2023-02-26T05:36:02.201Z,25.80
2023-02-26T05:38:30.568Z,25.90
2023-02-26T05:40:58.713Z,25.90
2023-02-26T05:43:26.920Z,25.90
2023-02-26T05:45:54.580Z,26.00
2023-02-26T05:48:22.829Z,26.10
2023-02-26T05:50:52.077Z,26.10
2023-02-26T05:53:20.357Z,26.10
2023-02-26T05:55:47.920Z,26.20
2023-02-26T05:58:15.887Z,26.30
2023-02-26T06:00:43.590Z,26.30
2023-02-26T06:03:11.416Z,26.30
2023-02-26T06:05:39.232Z,26.40
2023-02-26T06:08:07.900Z,26.40
2023-02-26T06:10:35.805Z,26.40
2023-02-26T06:13:04.278Z,26.40
2023-02-26T06:15:32.006Z,26.50
2023-02-26T06:17:59.625Z,26.50
2023-02-26T06:20:27.680Z,26.60
2023-02-26T06:22:56.806Z,26.60
2023-02-26T06:25:24.589Z,26.70
2023-02-26T06:27:52.728Z,26.80
2023-02-26T06:30:20.823Z,26.80
2023-02-26T06:32:48.447Z,26.90
2023-02-26T06:35:16.123Z,26.90
2023-02-26T06:37:43.874Z,26.90
2023-02-26T06:40:12.222Z,26.90
2023-02-26T06:42:40.799Z,26.90
2023-02-26T06:45:08.887Z,26.90
2023-02-26T06:47:36.622Z,26.90
2023-02-26T06:50:05.595Z,26.90
2023-02-26T06:52:33.793Z,26.90
2023-02-26T06:55:01.363Z,27.00
2023-02-26T06:57:29.100Z,26.90
2023-02-26T06:59:57.038Z,26.90
2023-02-26T07:02:24.848Z,27.00
2023-02-26T07:04:53.238Z,27.00
2023-02-26T07:07:21.056Z,27.00
2023-02-26T07:09:49.512Z,27.00
2023-02-26T07:12:17.294Z,27.00
2023-02-26T07:14:46.500Z,27.00
2023-02-26T07:17:21.098Z,27.00
2023-02-26T07:19:49.730Z,27.00
2023-02-26T07:22:22.462Z,27.10
2023-02-26T07:24:50.606Z,27.10
2023-02-26T07:27:23.204Z,27.00
2023-02-26T07:29:50.703Z,27.00
2023-02-26T07:32:18.328Z,27.10
2023-02-26T07:34:47.358Z,27.20
2023-02-26T07:37:15.088Z,27.20
2023-02-26T07:39:42.730Z,27.20
2023-02-26T07:42:10.261Z,27.20
2023-02-26T07:44:38.311Z,27.20
2023-02-26T07:47:05.850Z,27.20
2023-02-26T07:49:34.280Z,27.30
2023-02-26T07:52:01.927Z,27.30
2023-02-26T07:54:29.467Z,27.30
2023-02-26T07:56:58.431Z,27.30
2023-02-26T07:59:26.773Z,27.40
2023-02-26T08:01:55.153Z,27.40
2023-02-26T08:04:23.321Z,27.40
2023-02-26T08:06:53.418Z,27.40
2023-02-26T08:09:21.756Z,27.40
2023-02-26T08:11:49.341Z,27.40
2023-02-26T08:14:17.132Z,27.30
2023-02-26T08:16:44.719Z,27.30
2023-02-26T08:19:12.260Z,27.30
2023-02-26T08:21:39.829Z,27.30
2023-02-26T08:24:18.937Z,27.30
2023-02-26T08:26:46.970Z,27.40
2023-02-26T08:29:14.868Z,27.40
2023-02-26T08:31:42.567Z,27.40
2023-02-26T08:34:10.337Z,27.40
2023-02-26T08:36:37.980Z,27.30
2023-02-26T08:39:06.989Z,27.30
2023-02-26T08:41:36.470Z,27.30
2023-02-26T08:44:04.230Z,27.30
2023-02-26T08:46:32.104Z,27.30
2023-02-26T08:48:59.654Z,27.30
2023-02-26T08:51:27.554Z,27.30
2023-02-26T08:53:55.604Z,27.30
2023-02-26T08:56:23.215Z,27.20
2023-02-26T08:58:50.899Z,27.30
2023-02-26T09:01:19.861Z,27.30
2023-02-26T09:03:47.427Z,27.30
2023-02-26T09:06:15.747Z,27.30
2023-02-26T09:08:44.268Z,27.30
2023-02-26T09:11:12.363Z,27.30
2023-02-26T09:13:39.987Z,27.30
2023-02-26T09:16:08.250Z,27.30
2023-02-26T09:18:35.842Z,27.40
2023-02-26T09:21:03.792Z,27.30
2023-02-26T09:23:31.437Z,27.30
2023-02-26T09:25:59.814Z,27.30
2023-02-26T09:28:27.394Z,27.30
2023-02-26T09:30:57.848Z,27.20
2023-02-26T09:33:25.722Z,27.20
2023-02-26T09:35:53.278Z,27.20
2023-02-26T09:38:20.968Z,27.20
2023-02-26T09:40:54.850Z,27.20
2023-02-26T09:43:23.233Z,27.20
2023-02-26T09:45:51.162Z,27.10
2023-02-26T09:48:19.775Z,27.10
2023-02-26T09:50:57.570Z,27.10
2023-02-26T09:53:29.091Z,27.20
2023-02-26T09:55:59.993Z,27.10
2023-02-26T09:58:29.848Z,27.10
2023-02-26T10:01:00.948Z,27.00
2023-02-26T10:03:43.826Z,27.00
2023-02-26T10:06:11.437Z,27.00
2023-02-26T10:08:59.026Z,27.00
2023-02-26T10:11:45.043Z,26.90
2023-02-26T10:14:15.655Z,26.90
2023-02-26T10:16:44.433Z,26.90
2023-02-26T10:19:16.288Z,26.80
2023-02-26T10:21:50.359Z,26.80
2023-02-26T10:24:32.364Z,26.80
2023-02-26T10:27:07.479Z,26.80
2023-02-26T10:29:35.080Z,26.80
2023-02-26T10:32:12.157Z,26.80
2023-02-26T10:34:43.921Z,26.70
2023-02-26T10:37:24.098Z,26.70
2023-02-26T10:39:57.398Z,26.70
2023-02-26T10:42:31.105Z,26.60
2023-02-26T10:45:17.082Z,26.60
2023-02-26T10:47:50.008Z,26.60
2023-02-26T10:50:21.113Z,26.50
2023-02-26T10:52:49.788Z,26.50
2023-02-26T10:55:23.465Z,26.50
2023-02-26T10:57:55.369Z,26.40
2023-02-26T11:00:23.329Z,26.40
2023-02-26T11:02:54.768Z,26.40
2023-02-26T11:05:27.084Z,26.30
2023-02-26T11:07:57.528Z,26.30
2023-02-26T11:10:27.745Z,26.30
2023-02-26T11:12:55.404Z,26.20
2023-02-26T11:15:23.951Z,26.20
2023-02-26T11:17:54.495Z,26.20
2023-02-26T11:20:29.765Z,26.10
2023-02-26T11:22:58.429Z,26.10
2023-02-26T11:25:28.743Z,26.00
2023-02-26T11:28:07.506Z,26.10
2023-02-26T11:30:38.627Z,26.00
2023-02-26T11:33:19.410Z,26.00
2023-02-26T11:35:47.421Z,26.00
2023-02-26T11:38:21.022Z,26.00
2023-02-26T11:40:50.528Z,26.00
2023-02-26T11:43:20.613Z,25.90
2023-02-26T11:46:01.422Z,25.90
2023-02-26T11:48:35.620Z,25.90
2023-02-26T11:51:04.586Z,25.80
2023-02-26T11:53:36.835Z,25.80
2023-02-26T11:56:14.872Z,25.70
2023-02-26T11:58:43.946Z,25.60
2023-02-26T12:01:13.078Z,25.60
2023-02-26T12:03:43.855Z,25.50
2023-02-26T12:06:21.698Z,25.50
2023-02-26T12:08:49.411Z,25.40
2023-02-26T12:11:20.718Z,25.40
2023-02-26T12:13:48.177Z,25.30
2023-02-26T12:16:18.649Z,25.20
2023-02-26T12:19:01.423Z,25.20
2023-02-26T12:21:47.237Z,25.20
2023-02-26T12:24:30.436Z,25.10
2023-02-26T12:27:04.457Z,25.10
2023-02-26T12:29:48.456Z,25.00
2023-02-26T12:32:55.043Z,25.00
2023-02-26T12:35:25.268Z,25.00
2023-02-26T12:37:52.825Z,24.90
2023-02-26T12:40:21.130Z,24.90
2023-02-26T12:42:53.791Z,24.80
2023-02-26T12:45:27.492Z,24.80
2023-02-26T12:47:55.055Z,24.80
2023-02-26T12:50:22.556Z,24.80
2023-02-26T12:53:02.884Z,24.70
2023-02-26T12:55:33.152Z,24.70
2023-02-26T12:58:01.606Z,24.60
2023-02-26T13:00:33.071Z,24.60
2023-02-26T13:03:12.863Z,24.60
2023-02-26T13:05:59.800Z,24.50
2023-02-26T13:08:35.825Z,24.50
2023-02-26T13:11:03.422Z,24.50
2023-02-26T13:13:30.994Z,24.50
2023-02-26T13:16:03.858Z,24.40
2023-02-26T13:18:31.370Z,24.40
2023-02-26T13:21:01.941Z,24.40
2023-02-26T13:23:51.733Z,24.30
2023-02-26T13:26:19.812Z,24.30
2023-02-26T13:28:56.688Z,24.30
2023-02-26T13:31:27.073Z,24.30
2023-02-26T13:33:56.372Z,24.20
2023-02-26T13:36:25.799Z,24.20
2023-02-26T13:39:14.204Z,24.20
2023-02-26T13:41:48.854Z,24.10
2023-02-26T13:44:21.646Z,24.10
2023-02-26T13:47:07.106Z,24.10
2023-02-26T13:49:46.200Z,24.00
2023-02-26T13:52:24.907Z,24.00
2023-02-26T13:54:52.667Z,24.00
2023-02-26T13:57:39.566Z,24.00
2023-02-26T14:00:23.506Z,24.00
2023-02-26T14:03:11.321Z,23.90
2023-02-26T14:05:47.731Z,23.90
2023-02-26T14:08:21.144Z,23.80
2023-02-26T14:11:17.992Z,23.80
2023-02-26T14:14:05.783Z,23.80
2023-02-26T14:16:35.480Z,23.80
2023-02-26T14:19:07.160Z,23.80
2023-02-26T14:21:38.748Z,23.80
2023-02-26T14:24:25.055Z,23.70
2023-02-26T14:27:05.542Z,23.70
2023-02-26T14:29:43.063Z,23.70
2023-02-26T14:32:10.862Z,23.60
2023-02-26T14:34:50.820Z,23.60
2023-02-26T14:37:22.037Z,23.60
2023-02-26T14:39:54.928Z,23.50
2023-02-26T14:42:38.138Z,23.50
2023-02-26T14:45:17.982Z,23.40
2023-02-26T14:47:46.261Z,23.40
2023-02-26T14:50:20.611Z,23.40
2023-02-26T14:52:51.322Z,23.30
2023-02-26T14:55:20.090Z,23.30
2023-02-26T14:57:59.680Z,23.30
2023-02-26T15:00:40.731Z,23.20
2023-02-26T15:03:35.010Z,23.20
2023-02-26T15:06:02.558Z,23.20
2023-02-26T15:08:30.094Z,23.20
2023-02-26T15:11:09.123Z,23.20
2023-02-26T15:13:48.774Z,23.20
2023-02-26T15:16:16.539Z,23.10
2023-02-26T15:18:50.123Z,23.10
2023-02-26T15:21:27.285Z,23.10
2023-02-26T15:23:56.081Z,23.10
2023-02-26T15:26:29.665Z,23.10
2023-02-26T15:28:57.888Z,23.00
2023-02-26T15:31:32.031Z,23.00
2023-02-26T15:34:00.972Z,22.90
2023-02-26T15:36:30.222Z,22.90
2023-02-26T15:39:01.394Z,22.90
2023-02-26T15:41:30.090Z,22.80
2023-02-26T15:44:18.398Z,22.80
2023-02-26T15:46:47.786Z,22.80
2023-02-26T15:49:24.255Z,22.80
2023-02-26T15:51:53.035Z,22.70
2023-02-26T15:54:22.026Z,22.70
2023-02-26T15:56:49.858Z,22.70
2023-02-26T15:59:20.164Z,22.60
2023-02-26T16:01:48.873Z,22.60
2023-02-26T16:04:18.522Z,22.60
2023-02-26T16:06:48.446Z,22.60
2023-02-26T16:09:18.975Z,22.60
2023-02-26T16:11:48.198Z,22.50
2023-02-26T16:14:18.368Z,22.50
2023-02-26T16:16:48.745Z,22.50
2023-02-26T16:19:18.885Z,22.50
2023-02-26T16:21:46.953Z,22.50
2023-02-26T16:24:17.077Z,22.40
2023-02-26T16:26:56.420Z,22.40
2023-02-26T16:29:28.358Z,22.40
2023-02-26T16:31:57.370Z,22.40
2023-02-26T16:34:24.942Z,22.30
2023-02-26T16:36:54.379Z,22.30
2023-02-26T16:39:24.540Z,22.30
2023-02-26T16:42:14.456Z,22.30
2023-02-26T16:44:50.466Z,22.20
2023-02-26T16:47:19.060Z,22.20
2023-02-26T16:49:47.355Z,22.10
2023-02-26T16:52:18.806Z,22.20
2023-02-26T16:54:51.376Z,22.10
2023-02-26T16:57:23.596Z,22.10
2023-02-26T16:59:53.655Z,22.10
2023-02-26T17:02:23.048Z,22.00
2023-02-26T17:04:59.615Z,21.90
2023-02-26T17:07:34.547Z,21.90
2023-02-26T17:10:08.436Z,21.90
2023-02-26T17:13:06.344Z,21.80
2023-02-26T17:15:37.721Z,21.80
2023-02-26T17:18:05.456Z,21.70
2023-02-26T17:20:33.480Z,21.70
2023-02-26T17:23:01.989Z,21.60
2023-02-26T17:25:37.411Z,21.50
2023-02-26T17:28:05.927Z,21.50
2023-02-26T17:30:34.891Z,21.40
2023-02-26T17:33:05.088Z,21.40
2023-02-26T17:35:32.734Z,21.30
2023-02-26T17:38:01.376Z,21.30
2023-02-26T17:40:31.631Z,21.30
2023-02-26T17:43:00.330Z,21.30
2023-02-26T17:45:27.853Z,21.30
2023-02-26T17:47:55.423Z,21.40
2023-02-26T17:50:22.910Z,21.40
2023-02-26T17:52:50.445Z,21.40
2023-02-26T17:55:18.836Z,21.40
2023-02-26T17:57:47.657Z,21.30
2023-02-26T18:00:17.360Z,21.20
2023-02-26T18:02:45.664Z,21.10
2023-02-26T18:05:13.242Z,21.10
2023-02-26T18:07:41.187Z,21.00
2023-02-26T18:10:11.814Z,20.90
2023-02-26T18:12:40.184Z,20.80
2023-02-26T18:15:08.771Z,20.80
2023-02-26T18:17:36.682Z,20.70
2023-02-26T18:20:08.370Z,20.60
2023-02-26T18:22:36.131Z,20.60
2023-02-26T18:25:03.871Z,20.50
2023-02-26T18:27:31.469Z,20.40
2023-02-26T18:30:00.101Z,20.50
2023-02-26T18:32:28.591Z,20.40
2023-02-26T18:34:56.340Z,20.30
2023-02-26T18:37:25.631Z,20.30
2023-02-26T18:39:53.235Z,20.30
2023-02-26T18:42:22.419Z,20.30
2023-02-26T18:44:50.337Z,20.30
2023-02-26T18:47:19.191Z,20.30
2023-02-26T18:49:47.421Z,20.20
2023-02-26T18:52:15.462Z,20.20
2023-02-26T18:54:43.181Z,20.20
2023-02-26T18:57:10.819Z,20.20
2023-02-26T18:59:38.383Z,20.20
2023-02-26T19:02:07.146Z,20.10
2023-02-26T19:04:34.770Z,20.10
2023-02-26T19:07:04.028Z,20.00
2023-02-26T19:09:31.528Z,20.00
2023-02-26T19:12:00.167Z,20.00
2023-02-26T19:14:28.871Z,19.90
2023-02-26T19:16:56.529Z,19.90
2023-02-26T19:19:24.235Z,19.80
2023-02-26T19:21:51.825Z,19.80
2023-02-26T19:24:19.406Z,19.80
2023-02-26T19:26:47.217Z,19.80
2023-02-26T19:29:17.565Z,19.80
2023-02-26T19:31:45.642Z,19.80
2023-02-26T19:34:13.494Z,19.80
2023-02-26T19:36:43.636Z,19.80
2023-02-26T19:39:12.335Z,19.80
2023-02-26T19:41:40.740Z,19.80
2023-02-26T19:44:08.355Z,19.80
2023-02-26T19:46:36.321Z,19.80
2023-02-26T19:49:03.933Z,19.80
2023-02-26T19:51:31.492Z,19.80
2023-02-26T19:53:59.111Z,19.70
2023-02-26T19:56:26.578Z,19.70
2023-02-26T19:58:54.518Z,19.70
2023-02-26T20:01:22.257Z,19.70
2023-02-26T20:03:49.827Z,19.70
2023-02-26T20:06:17.637Z,19.70
2023-02-26T20:08:45.242Z,19.60
2023-02-26T20:11:12.742Z,19.60
2023-02-26T20:13:40.508Z,19.60
2023-02-26T20:16:09.461Z,19.60
2023-02-26T20:18:37.468Z,19.60
2023-02-26T20:21:07.161Z,19.60
2023-02-26T20:23:37.208Z,19.50
2023-02-26T20:26:09.890Z,19.50
2023-02-26T20:28:37.613Z,19.50
2023-02-26T20:31:05.451Z,19.40
2023-02-26T20:33:36.263Z,19.40
2023-02-26T20:36:04.025Z,19.30
2023-02-26T20:38:31.597Z,19.40
2023-02-26T20:40:59.063Z,19.30
2023-02-26T20:43:26.764Z,19.30
2023-02-26T20:45:56.247Z,19.30
2023-02-26T20:48:24.721Z,19.30
2023-02-26T20:50:53.858Z,19.30
2023-02-26T20:53:22.020Z,19.30
2023-02-26T20:55:49.885Z,19.30
2023-02-26T20:58:17.406Z,19.20
2023-02-26T21:00:45.204Z,19.20
2023-02-26T21:03:12.755Z,19.10
2023-02-26T21:05:41.978Z,19.10
2023-02-26T21:08:10.808Z,19.10
2023-02-26T21:10:38.649Z,19.00
2023-02-26T21:13:06.165Z,19.00
2023-02-26T21:15:34.116Z,18.90
2023-02-26T21:18:01.725Z,19.00
2023-02-26T21:20:29.338Z,19.00
2023-02-26T21:22:56.897Z,19.00
2023-02-26T21:25:24.471Z,19.00
2023-02-26T21:27:52.106Z,19.00
2023-02-26T21:30:20.161Z,19.00
2023-02-26T21:32:48.404Z,18.90
2023-02-26T21:35:17.248Z,18.90
2023-02-26T21:37:45.526Z,18.90
2023-02-26T21:40:13.841Z,18.90
2023-02-26T21:42:41.820Z,18.80
2023-02-26T21:45:09.807Z,18.90
2023-02-26T21:47:37.803Z,18.90
2023-02-26T21:50:06.580Z,18.80
2023-02-26T21:52:35.014Z,18.80
2023-02-26T21:55:02.697Z,18.80
2023-02-26T21:57:30.445Z,18.80
2023-02-26T21:59:58.967Z,18.80
2023-02-26T22:02:26.481Z,18.80
2023-02-26T22:04:54.015Z,18.80
2023-02-26T22:07:21.597Z,18.80
2023-02-26T22:09:50.077Z,18.80
2023-02-26T22:12:18.423Z,18.80
2023-02-26T22:14:46.214Z,18.70
2023-02-26T22:17:13.852Z,18.70
2023-02-26T22:19:41.377Z,18.70
2023-02-26T22:22:09.521Z,18.80
2023-02-26T22:24:37.121Z,18.80
2023-02-26T22:27:04.608Z,18.80
2023-02-26T22:29:32.080Z,18.80
2023-02-26T22:32:00.252Z,18.80
2023-02-26T22:34:27.995Z,18.70
2023-02-26T22:36:55.499Z,18.70
2023-02-26T22:39:23.068Z,18.70
2023-02-26T22:41:51.467Z,18.70
2023-02-26T22:44:19.008Z,18.70
2023-02-26T22:46:47.899Z,18.60
2023-02-26T22:49:16.197Z,18.60
2023-02-26T22:51:43.678Z,18.60
2023-02-26T22:54:12.295Z,18.50
2023-02-26T22:56:39.900Z,18.40
2023-02-26T22:59:07.417Z,18.40
2023-02-26T23:01:34.963Z,18.30
2023-02-26T23:04:02.604Z,18.30
2023-02-26T23:06:30.154Z,18.30
2023-02-26T23:08:57.685Z,18.30
2023-02-26T23:11:25.640Z,18.20
2023-02-26T23:13:53.344Z,18.20
2023-02-26T23:16:20.850Z,18.20
2023-02-26T23:18:48.478Z,18.20
2023-02-26T23:21:16.599Z,18.20
2023-02-26T23:23:44.329Z,18.20
2023-02-26T23:26:11.961Z,18.20
2023-02-26T23:28:39.693Z,18.20
2023-02-26T23:31:07.475Z,18.20
2023-02-26T23:33:35.023Z,18.20
2023-02-26T23:36:02.522Z,18.20
2023-02-26T23:38:29.992Z,18.20
2023-02-26T23:40:57.530Z,18.20
2023-02-26T23:43:25.608Z,18.20
2023-02-26T23:45:53.292Z,18.20
2023-02-26T23:48:20.812Z,18.20
2023-02-26T23:50:49.116Z,18.20
2023-02-26T23:53:16.632Z,18.20
2023-02-26T23:55:44.184Z,18.10
2023-02-26T23:58:11.653Z,18.10
